Denver, CO

8:28 PM MDT on April 27, 2015 (GMT -0600)
Jeffco | | Change Station
CLOSE
Current Station
Airport
Location: Broomfield,
Elevation: 5656 ft
Nearby Weather Stations

Elev 5656 ft 39.90 °N, 105.10 °W | Updated 42 minutes ago

Overcast
Overcast
45 °F
Feels Like 41 °F
N
6
Wind Variable Wind from NE

Today
High -- | Low -- °F
--% Chance of Precip.
Yesterday
High -- | Low -- °F
Precip. -- in
6:05 AM 7:50 PM
Waxing Gibbous, 70% visible
Pressure 30.31 in
Visibility 15.0 miles
Clouds Few 1000 ft
Mostly Cloudy 3000 ft
Overcast 5000 ft
Windchill 41 °F
Dew Point 41 °F
Humidity 87%
Rainfall 0.00 in
Snow Depth Not available.
UV 0 out of 12
Pollen 3.20 out of 12
Air Quality Not available.
Flu Activity Sporadic
METAR KBJC 280146Z 05005KT 15SM FEW010 BKN030 OVC050 07/05 A3031

More Conditions Fewer Conditions

Pressure 30.31 in
Visibility 15.0 miles
Clouds Few 1000 ft
Mostly Cloudy 3000 ft
Overcast 5000 ft
Windchill 41 °F
Dew Point 41 °F
Humidity 87%
Rainfall 0.00 in
Snow Depth Not available.
UV 0 out of 12
Pollen 3.20 out of 12
Air Quality Not available.
Flu Activity Sporadic
METAR KBJC 280146Z 05005KT 15SM FEW010 BKN030 OVC050 07/05 A3031

More Conditions Fewer Conditions

10-Day Weather Forecast

Almanac

Astronomy

Apr. 27, 2015 Rise Set
Actual Time
Civil Twilight
Nautical Twilight
Astronomical Twilight
Moon
Length of Visible Light
Length of Day
Tomorrow will be .
, % of the Moon is Illuminated

Today's Extremes

State Highs State Lows

Community

WunderPhotos

Upload Photos

1,817,509 photos uploaded!

WunderBlogs® & News

Nearby

Air Quality

  Air Quality AQ Index Pollutant
Not available.

Snow Depth

Station Depth Elevation

Earthquake Activity

City Distance Mag. Time & Date
Minimum magnitude displayed is 2.5.

Coastal Water Temperatures

Place Temperature

Stations

Nearby Weather Stations

Station Location Temp. Windchill Dew Point Humidity Wind Precip. Elev Updated Type